Terminal Aerodrome Forecast
Issued by NWS Des Moines, IA

Home | Current Version | Previous Version | Text Only | Print | Product List | Glossary On
Versions: 1 2 3 4 5 6 7 8 9 10 11 12 13 14 15 16 17 18 19
000
FTUS43 KDMX 241504 AAA
TAFALO
TAF AMD
KALO 241504Z 2415/2512 31006KT P6SM FEW015 SCT025
      TEMPO 2415/2416 BKN015
     FM241700 31009KT P6SM SCT200=

USA.gov is the U.S. government's official web portal to all federal, state and local government web resources and services.